sensor_id;sensor_type;location;lat;lon;timestamp;pressure;altitude;pressure_sealevel;temperature;humidity
70015;BME280;57358;51.094;6.760;2023-09-19T00:00:21;100196.97;;;14.53;100.00
70015;BME280;57358;51.094;6.760;2023-09-19T00:02:54;100251.06;;;14.83;100.00
70015;BME280;57358;51.094;6.760;2023-09-19T00:05:21;100277.88;;;14.89;100.00
70015;BME280;57358;51.094;6.760;2023-09-19T00:07:51;100268.00;;;14.80;100.00
70015;BME280;57358;51.094;6.760;2023-09-19T00:10:21;100283.97;;;14.79;100.00
70015;BME280;57358;51.094;6.760;2023-09-19T00:12:51;100241.13;;;14.51;100.00
70015;BME280;57358;51.094;6.760;2023-09-19T00:15:19;100289.72;;;14.72;100.00
70015;BME280;57358;51.094;6.760;2023-09-19T00:17:46;100289.00;;;14.70;100.00
70015;BME280;57358;51.094;6.760;2023-09-19T00:20:14;100265.22;;;14.35;100.00
70015;BME280;57358;51.094;6.760;2023-09-19T00:22:44;100315.25;;;14.61;100.00
70015;BME280;57358;51.094;6.760;2023-09-19T00:25:13;100290.44;;;14.39;100.00
70015;BME280;57358;51.094;6.760;2023-09-19T00:27:41;100331.16;;;14.72;100.00
70015;BME280;57358;51.094;6.760;2023-09-19T00:30:09;100245.28;;;14.31;100.00
70015;BME280;57358;51.094;6.760;2023-09-19T00:32:47;100322.97;;;14.75;100.00
70015;BME280;57358;51.094;6.760;2023-09-19T00:35:14;100257.44;;;14.45;100.00
70015;BME280;57358;51.094;6.760;2023-09-19T00:37:45;100305.09;;;14.79;100.00
70015;BME280;57358;51.094;6.760;2023-09-19T00:40:14;100306.66;;;14.81;100.00
70015;BME280;57358;51.094;6.760;2023-09-19T00:42:46;100304.03;;;14.81;100.00
70015;BME280;57358;51.094;6.760;2023-09-19T00:45:14;100302.97;;;14.84;100.00
70015;BME280;57358;51.094;6.760;2023-09-19T00:47:45;100286.88;;;14.75;100.00
70015;BME280;57358;51.094;6.760;2023-09-19T00:50:14;100225.28;;;14.40;100.00
70015;BME280;57358;51.094;6.760;2023-09-19T00:52:44;100278.06;;;14.64;100.00
70015;BME280;57358;51.094;6.760;2023-09-19T00:55:11;100300.53;;;14.81;100.00
70015;BME280;57358;51.094;6.760;2023-09-19T00:57:40;100266.88;;;14.60;100.00
70015;BME280;57358;51.094;6.760;2023-09-19T01:00:08;100304.75;;;14.83;100.00
70015;BME280;57358;51.094;6.760;2023-09-19T01:02:42;100294.19;;;14.83;100.00
70015;BME280;57358;51.094;6.760;2023-09-19T01:05:10;100280.13;;;14.71;100.00
70015;BME280;57358;51.094;6.760;2023-09-19T01:07:39;100290.22;;;14.78;100.00
70015;BME280;57358;51.094;6.760;2023-09-19T01:10:14;100300.53;;;14.81;100.00
70015;BME280;57358;51.094;6.760;2023-09-19T01:13:08;100104.38;;;13.63;100.00
70015;BME280;57358;51.094;6.760;2023-09-19T01:22:11;100304.16;;;14.80;100.00
70015;BME280;57358;51.094;6.760;2023-09-19T01:30:14;100303.19;;;14.69;100.00
70015;BME280;57358;51.094;6.760;2023-09-19T01:32:41;100287.72;;;14.52;100.00
70015;BME280;57358;51.094;6.760;2023-09-19T01:35:09;100256.81;;;14.30;100.00
70015;BME280;57358;51.094;6.760;2023-09-19T01:37:39;100140.53;;;13.49;100.00
70015;BME280;57358;51.094;6.760;2023-09-19T01:40:09;100320.78;;;14.58;100.00
70015;BME280;57358;51.094;6.760;2023-09-19T01:42:59;100328.41;;;14.73;100.00
70015;BME280;57358;51.094;6.760;2023-09-19T01:48:37;100244.97;;;14.47;100.00
70015;BME280;57358;51.094;6.760;2023-09-19T01:51:07;100243.78;;;14.40;100.00
70015;BME280;57358;51.094;6.760;2023-09-19T01:56:31;100290.94;;;14.80;100.00
70015;BME280;57358;51.094;6.760;2023-09-19T01:59:04;100287.34;;;14.81;100.00
70015;BME280;57358;51.094;6.760;2023-09-19T02:01:34;100202.91;;;14.21;100.00
70015;BME280;57358;51.094;6.760;2023-09-19T02:04:04;100273.72;;;14.63;100.00
70015;BME280;57358;51.094;6.760;2023-09-19T02:06:31;100286.97;;;14.74;100.00
70015;BME280;57358;51.094;6.760;2023-09-19T02:08:58;100194.00;;;14.11;100.00
70015;BME280;57358;51.094;6.760;2023-09-19T02:11:25;100301.25;;;14.71;100.00
70015;BME280;57358;51.094;6.760;2023-09-19T02:13:52;100185.34;;;13.98;100.00
70015;BME280;57358;51.094;6.760;2023-09-19T02:16:21;100294.75;;;14.64;100.00
70015;BME280;57358;51.094;6.760;2023-09-19T02:18:49;100291.59;;;14.59;100.00
70015;BME280;57358;51.094;6.760;2023-09-19T02:21:16;100279.38;;;14.58;100.00
70015;BME280;57358;51.094;6.760;2023-09-19T02:23:44;100204.69;;;14.09;100.00
70015;BME280;57358;51.094;6.760;2023-09-19T02:26:10;100278.97;;;14.51;100.00
70015;BME280;57358;51.094;6.760;2023-09-19T02:28:38;100284.84;;;14.55;100.00
70015;BME280;57358;51.094;6.760;2023-09-19T02:31:04;100269.75;;;14.57;100.00
70015;BME280;57358;51.094;6.760;2023-09-19T02:33:34;100272.00;;;14.50;100.00
70015;BME280;57358;51.094;6.760;2023-09-19T02:36:01;100216.44;;;14.16;100.00
70015;BME280;57358;51.094;6.760;2023-09-19T02:38:30;100267.91;;;14.46;100.00
70015;BME280;57358;51.094;6.760;2023-09-19T02:40:56;100232.53;;;14.13;100.00
70015;BME280;57358;51.094;6.760;2023-09-19T02:43:23;100274.00;;;14.35;100.00
70015;BME280;57358;51.094;6.760;2023-09-19T02:45:50;100307.25;;;14.38;100.00
70015;BME280;57358;51.094;6.760;2023-09-19T02:48:16;100277.94;;;14.30;100.00
70015;BME280;57358;51.094;6.760;2023-09-19T02:50:44;100177.28;;;13.64;100.00
70015;BME280;57358;51.094;6.760;2023-09-19T02:53:11;100289.88;;;14.23;100.00
70015;BME280;57358;51.094;6.760;2023-09-19T02:55:39;100268.16;;;13.95;100.00
70015;BME280;57358;51.094;6.760;2023-09-19T02:58:07;100206.22;;;13.52;100.00
70015;BME280;57358;51.094;6.760;2023-09-19T03:00:41;100308.78;;;14.05;100.00
70015;BME280;57358;51.094;6.760;2023-09-19T03:03:14;100307.72;;;13.95;100.00
70015;BME280;57358;51.094;6.760;2023-09-19T03:05:42;100326.63;;;14.02;100.00
70015;BME280;57358;51.094;6.760;2023-09-19T03:08:13;100209.28;;;13.46;100.00
70015;BME280;57358;51.094;6.760;2023-09-19T03:10:46;100249.50;;;13.74;100.00
70015;BME280;57358;51.094;6.760;2023-09-19T03:13:14;100151.63;;;13.29;100.00
70015;BME280;57358;51.094;6.760;2023-09-19T03:15:42;100256.78;;;13.94;100.00
70015;BME280;57358;51.094;6.760;2023-09-19T03:18:12;100261.66;;;13.88;100.00
70015;BME280;57358;51.094;6.760;2023-09-19T03:20:39;100258.47;;;13.95;100.00
70015;BME280;57358;51.094;6.760;2023-09-19T03:23:06;100271.53;;;13.97;100.00
70015;BME280;57358;51.094;6.760;2023-09-19T03:25:34;100257.34;;;13.87;100.00
70015;BME280;57358;51.094;6.760;2023-09-19T03:28:03;100274.34;;;13.83;100.00
70015;BME280;57358;51.094;6.760;2023-09-19T03:30:32;100277.94;;;13.82;100.00
70015;BME280;57358;51.094;6.760;2023-09-19T03:33:00;100252.50;;;13.56;100.00
70015;BME280;57358;51.094;6.760;2023-09-19T03:35:27;100218.81;;;13.36;100.00
70015;BME280;57358;51.094;6.760;2023-09-19T03:37:53;100295.34;;;13.84;100.00
70015;BME280;57358;51.094;6.760;2023-09-19T03:40:20;100227.56;;;13.36;100.00
70015;BME280;57358;51.094;6.760;2023-09-19T03:42:48;100298.88;;;13.72;100.00
70015;BME280;57358;51.094;6.760;2023-09-19T03:45:14;100243.59;;;13.33;100.00
70015;BME280;57358;51.094;6.760;2023-09-19T03:47:42;100292.97;;;13.68;100.00
70015;BME280;57358;51.094;6.760;2023-09-19T03:50:09;100206.69;;;13.21;100.00
70015;BME280;57358;51.094;6.760;2023-09-19T03:52:37;100253.16;;;13.47;100.00
70015;BME280;57358;51.094;6.760;2023-09-19T03:55:04;100280.50;;;13.70;100.00
70015;BME280;57358;51.094;6.760;2023-09-19T03:57:31;100118.28;;;12.67;100.00
70015;BME280;57358;51.094;6.760;2023-09-19T03:59:58;100268.59;;;13.65;100.00
70015;BME280;57358;51.094;6.760;2023-09-19T04:02:25;100253.91;;;13.49;100.00
70015;BME280;57358;51.094;6.760;2023-09-19T04:04:52;100238.63;;;13.42;100.00
70015;BME280;57358;51.094;6.760;2023-09-19T04:07:19;100269.84;;;13.72;100.00
70015;BME280;57358;51.094;6.760;2023-09-19T04:09:48;100258.72;;;13.55;100.00
70015;BME280;57358;51.094;6.760;2023-09-19T04:12:15;100212.50;;;13.26;100.00
70015;BME280;57358;51.094;6.760;2023-09-19T04:14:45;100261.25;;;13.57;100.00
70015;BME280;57358;51.094;6.760;2023-09-19T04:17:11;100282.84;;;13.62;100.00
70015;BME280;57358;51.094;6.760;2023-09-19T04:19:38;100204.00;;;13.09;100.00
70015;BME280;57358;51.094;6.760;2023-09-19T04:22:05;100293.75;;;13.57;100.00
70015;BME280;57358;51.094;6.760;2023-09-19T04:24:31;100304.28;;;13.57;100.00
70015;BME280;57358;51.094;6.760;2023-09-19T04:26:58;100252.84;;;13.26;100.00
70015;BME280;57358;51.094;6.760;2023-09-19T04:29:25;100304.28;;;13.57;100.00
70015;BME280;57358;51.094;6.760;2023-09-19T04:31:56;100314.94;;;13.56;100.00
70015;BME280;57358;51.094;6.760;2023-09-19T04:34:23;100265.38;;;13.23;100.00
70015;BME280;57358;51.094;6.760;2023-09-19T04:36:50;100317.38;;;13.46;100.00
70015;BME280;57358;51.094;6.760;2023-09-19T04:39:17;100328.16;;;13.43;100.00
70015;BME280;57358;51.094;6.760;2023-09-19T04:41:44;100268.69;;;12.88;100.00
70015;BME280;57358;51.094;6.760;2023-09-19T04:44:12;100348.38;;;13.43;100.00
70015;BME280;57358;51.094;6.760;2023-09-19T04:46:40;100287.03;;;13.02;100.00
70015;BME280;57358;51.094;6.760;2023-09-19T04:49:06;100291.13;;;13.06;100.00
70015;BME280;57358;51.094;6.760;2023-09-19T04:51:33;100368.53;;;13.44;100.00
70015;BME280;57358;51.094;6.760;2023-09-19T04:54:02;100274.16;;;12.85;100.00
70015;BME280;57358;51.094;6.760;2023-09-19T04:56:29;100367.88;;;13.40;100.00
70015;BME280;57358;51.094;6.760;2023-09-19T04:58:56;100291.88;;;12.95;100.00
70015;BME280;57358;51.094;6.760;2023-09-19T05:01:25;100382.13;;;13.38;100.00
70015;BME280;57358;51.094;6.760;2023-09-19T05:03:51;100379.69;;;13.34;100.00
70015;BME280;57358;51.094;6.760;2023-09-19T05:06:19;100289.78;;;12.75;100.00
70015;BME280;57358;51.094;6.760;2023-09-19T05:08:47;100374.75;;;13.30;100.00
70015;BME280;57358;51.094;6.760;2023-09-19T05:11:18;100300.50;;;12.85;100.00
70015;BME280;57358;51.094;6.760;2023-09-19T05:13:45;100329.81;;;13.06;100.00
70015;BME280;57358;51.094;6.760;2023-09-19T05:16:11;100381.59;;;13.32;100.00
70015;BME280;57358;51.094;6.760;2023-09-19T05:18:38;100385.56;;;13.25;100.00
70015;BME280;57358;51.094;6.760;2023-09-19T05:21:05;100348.13;;;12.94;100.00
70015;BME280;57358;51.094;6.760;2023-09-19T05:23:31;100418.59;;;13.31;100.00
70015;BME280;57358;51.094;6.760;2023-09-19T05:25:58;100287.19;;;12.48;100.00
70015;BME280;57358;51.094;6.760;2023-09-19T05:28:26;100416.28;;;13.39;100.00
70015;BME280;57358;51.094;6.760;2023-09-19T05:30:53;100428.50;;;13.53;100.00
70015;BME280;57358;51.094;6.760;2023-09-19T05:33:19;100403.19;;;13.50;100.00
70015;BME280;57358;51.094;6.760;2023-09-19T05:35:48;100328.31;;;13.14;100.00
70015;BME280;57358;51.094;6.760;2023-09-19T05:38:14;100194.44;;;12.44;100.00
70015;BME280;57358;51.094;6.760;2023-09-19T05:40:45;100390.53;;;13.81;100.00
70015;BME280;57358;51.094;6.760;2023-09-19T05:43:12;100391.25;;;13.83;100.00
70015;BME280;57358;51.094;6.760;2023-09-19T05:45:41;100310.88;;;13.39;100.00
70015;BME280;57358;51.094;6.760;2023-09-19T05:48:12;100391.44;;;13.93;100.00
70015;BME280;57358;51.094;6.760;2023-09-19T05:50:43;100370.56;;;13.90;100.00
70015;BME280;57358;51.094;6.760;2023-09-19T05:53:13;100380.97;;;14.04;100.00
70015;BME280;57358;51.094;6.760;2023-09-19T05:55:41;100348.00;;;13.86;100.00
70015;BME280;57358;51.094;6.760;2023-09-19T05:58:08;100383.06;;;14.12;100.00
70015;BME280;57358;51.094;6.760;2023-09-19T06:00:36;100315.72;;;13.82;100.00
70015;BME280;57358;51.094;6.760;2023-09-19T06:03:05;100376.03;;;14.24;100.00
70015;BME280;57358;51.094;6.760;2023-09-19T06:05:32;100373.06;;;14.28;100.00
70015;BME280;57358;51.094;6.760;2023-09-19T06:07:59;100378.00;;;14.33;100.00
70015;BME280;57358;51.094;6.760;2023-09-19T06:10:34;100380.19;;;14.39;100.00
70015;BME280;57358;51.094;6.760;2023-09-19T06:13:04;100360.50;;;14.32;100.00
70015;BME280;57358;51.094;6.760;2023-09-19T06:15:32;100338.47;;;14.20;100.00
70015;BME280;57358;51.094;6.760;2023-09-19T06:17:59;100378.69;;;14.48;100.00
70015;BME280;57358;51.094;6.760;2023-09-19T06:20:28;100379.06;;;14.54;100.00
70015;BME280;57358;51.094;6.760;2023-09-19T06:22:56;100384.53;;;14.64;100.00
70015;BME280;57358;51.094;6.760;2023-09-19T06:25:23;100288.25;;;14.09;100.00
70015;BME280;57358;51.094;6.760;2023-09-19T06:27:51;100372.91;;;14.67;100.00
70015;BME280;57358;51.094;6.760;2023-09-19T06:30:23;100347.38;;;14.54;100.00
70015;BME280;57358;51.094;6.760;2023-09-19T06:32:58;100365.13;;;14.76;100.00
70015;BME280;57358;51.094;6.760;2023-09-19T06:35:26;100352.91;;;14.75;100.00
70015;BME280;57358;51.094;6.760;2023-09-19T06:37:55;100349.06;;;14.80;100.00
70015;BME280;57358;51.094;6.760;2023-09-19T06:40:24;100264.94;;;14.27;100.00
70015;BME280;57358;51.094;6.760;2023-09-19T06:42:51;100344.16;;;14.86;100.00
70015;BME280;57358;51.094;6.760;2023-09-19T06:45:19;100276.78;;;14.45;100.00
70015;BME280;57358;51.094;6.760;2023-09-19T06:47:49;100345.75;;;15.00;100.00
70015;BME280;57358;51.094;6.760;2023-09-19T06:50:21;100330.59;;;14.91;100.00
70015;BME280;57358;51.094;6.760;2023-09-19T06:52:53;100345.41;;;15.16;100.00
70015;BME280;57358;51.094;6.760;2023-09-19T06:55:21;100332.81;;;15.20;100.00
70015;BME280;57358;51.094;6.760;2023-09-19T06:57:51;100234.97;;;14.74;99.60
70015;BME280;57358;51.094;6.760;2023-09-19T07:00:18;100331.59;;;15.35;99.27
70015;BME280;57358;51.094;6.760;2023-09-19T07:02:54;100313.94;;;15.47;98.48
70015;BME280;57358;51.094;6.760;2023-09-19T07:05:21;100234.66;;;15.02;97.77
70015;BME280;57358;51.094;6.760;2023-09-19T07:07:48;100302.75;;;15.54;97.54
70015;BME280;57358;51.094;6.760;2023-09-19T07:10:14;100280.53;;;15.46;96.88
70015;BME280;57358;51.094;6.760;2023-09-19T07:12:41;100278.22;;;15.52;95.86
70015;BME280;57358;51.094;6.760;2023-09-19T07:15:09;100290.38;;;15.78;95.51
70015;BME280;57358;51.094;6.760;2023-09-19T07:17:35;100290.94;;;15.81;94.79
70015;BME280;57358;51.094;6.760;2023-09-19T07:20:03;100282.19;;;15.81;94.39
70015;BME280;57358;51.094;6.760;2023-09-19T07:22:34;100289.72;;;15.97;93.50
70015;BME280;57358;51.094;6.760;2023-09-19T07:25:01;100309.06;;;16.08;93.72
70015;BME280;57358;51.094;6.760;2023-09-19T07:27:29;100282.91;;;16.15;92.70
70015;BME280;57358;51.094;6.760;2023-09-19T07:29:55;99932.78;;;14.11;91.13
70015;BME280;57358;51.094;6.760;2023-09-19T07:32:22;100224.06;;;16.11;90.89
70015;BME280;57358;51.094;6.760;2023-09-19T07:34:48;100299.31;;;16.62;90.68
70015;BME280;57358;51.094;6.760;2023-09-19T07:37:15;100285.44;;;16.70;89.54
70015;BME280;57358;51.094;6.760;2023-09-19T07:39:42;100194.53;;;16.48;87.30
70015;BME280;57358;51.094;6.760;2023-09-19T07:42:11;100205.59;;;16.63;85.82
70015;BME280;57358;51.094;6.760;2023-09-19T07:44:44;100239.84;;;16.55;87.28
70015;BME280;57358;51.094;6.760;2023-09-19T07:47:14;100251.22;;;16.67;87.36
70015;BME280;57358;51.094;6.760;2023-09-19T07:49:40;100293.03;;;17.05;87.10
70015;BME280;57358;51.094;6.760;2023-09-19T07:52:11;100306.97;;;17.28;86.67
70015;BME280;57358;51.094;6.760;2023-09-19T07:54:38;100212.00;;;17.12;84.64
70015;BME280;57358;51.094;6.760;2023-09-19T07:57:05;100130.91;;;17.00;82.65
70015;BME280;57358;51.094;6.760;2023-09-19T07:59:31;100177.25;;;17.15;82.20
70015;BME280;57358;51.094;6.760;2023-09-19T08:01:58;100188.63;;;17.37;81.86
70015;BME280;57358;51.094;6.760;2023-09-19T08:04:24;100219.22;;;17.51;82.31
70015;BME280;57358;51.094;6.760;2023-09-19T08:06:52;100138.72;;;17.11;81.75
70015;BME280;57358;51.094;6.760;2023-09-19T08:09:18;100195.06;;;17.64;80.41
70015;BME280;57358;51.094;6.760;2023-09-19T08:11:50;100213.38;;;17.67;80.41
70015;BME280;57358;51.094;6.760;2023-09-19T08:14:17;100144.50;;;17.46;79.77
70015;BME280;57358;51.094;6.760;2023-09-19T08:16:43;100212.19;;;17.90;79.17
70015;BME280;57358;51.094;6.760;2023-09-19T08:19:10;100182.69;;;17.84;78.68
70015;BME280;57358;51.094;6.760;2023-09-19T08:21:37;100214.97;;;17.99;79.07
70015;BME280;57358;51.094;6.760;2023-09-19T08:24:04;100175.25;;;17.78;78.88
70015;BME280;57358;51.094;6.760;2023-09-19T08:26:30;100146.47;;;17.73;78.07
70015;BME280;57358;51.094;6.760;2023-09-19T08:28:57;100186.88;;;18.16;77.60
70015;BME280;57358;51.094;6.760;2023-09-19T08:31:23;100133.81;;;17.86;76.68
70015;BME280;57358;51.094;6.760;2023-09-19T08:33:54;100148.47;;;17.90;77.07
70015;BME280;57358;51.094;6.760;2023-09-19T08:36:22;100100.94;;;17.68;76.19
70015;BME280;57358;51.094;6.760;2023-09-19T08:38:48;100170.94;;;18.06;76.16
70015;BME280;57358;51.094;6.760;2023-09-19T08:41:17;100120.09;;;18.01;74.57
70015;BME280;57358;51.094;6.760;2023-09-19T08:43:43;100168.28;;;18.16;74.87
70015;BME280;57358;51.094;6.760;2023-09-19T08:46:13;100144.34;;;18.25;74.36
70015;BME280;57358;51.094;6.760;2023-09-19T08:48:45;100226.59;;;18.74;74.24
70015;BME280;57358;51.094;6.760;2023-09-19T08:51:45;100219.91;;;18.80;74.05
70015;BME280;57358;51.094;6.760;2023-09-19T08:54:31;100054.72;;;18.27;72.25
70015;BME280;57358;51.094;6.760;2023-09-19T08:57:00;100045.91;;;18.64;69.72
70015;BME280;57358;51.094;6.760;2023-09-19T08:59:32;100059.34;;;18.63;69.96
70015;BME280;57358;51.094;6.760;2023-09-19T09:02:01;100149.41;;;18.66;71.51
70015;BME280;57358;51.094;6.760;2023-09-19T09:04:30;100073.69;;;18.05;71.43
70015;BME280;57358;51.094;6.760;2023-09-19T09:06:57;100168.19;;;18.54;72.03
70015;BME280;57358;51.094;6.760;2023-09-19T09:09:24;100223.97;;;19.11;71.17
70015;BME280;57358;51.094;6.760;2023-09-19T09:11:51;100191.88;;;19.23;70.03
70015;BME280;57358;51.094;6.760;2023-09-19T09:14:20;100108.78;;;19.11;68.88
70015;BME280;57358;51.094;6.760;2023-09-19T09:16:47;100064.78;;;19.17;67.70
70015;BME280;57358;51.094;6.760;2023-09-19T09:19:15;100076.22;;;18.99;67.79
70015;BME280;57358;51.094;6.760;2023-09-19T09:21:51;100103.56;;;19.37;67.08
70015;BME280;57358;51.094;6.760;2023-09-19T09:24:28;100079.53;;;19.47;65.89
70015;BME280;57358;51.094;6.760;2023-09-19T09:26:58;100098.16;;;19.65;65.88
70015;BME280;57358;51.094;6.760;2023-09-19T09:29:47;100094.69;;;19.90;65.05
70015;BME280;57358;51.094;6.760;2023-09-19T09:34:48;100011.78;;;19.85;63.81
70015;BME280;57358;51.094;6.760;2023-09-19T09:37:16;99974.69;;;19.66;63.36
70015;BME280;57358;51.094;6.760;2023-09-19T09:39:53;100027.34;;;19.98;62.90
70015;BME280;57358;51.094;6.760;2023-09-19T09:42:30;100042.91;;;20.11;62.38
70015;BME280;57358;51.094;6.760;2023-09-19T09:47:45;100066.28;;;20.25;61.75
70015;BME280;57358;51.094;6.760;2023-09-19T09:52:56;100091.56;;;20.47;61.48
70015;BME280;57358;51.094;6.760;2023-09-19T09:56:02;100045.38;;;20.39;61.88
70015;BME280;57358;51.094;6.760;2023-09-19T09:58:36;100008.25;;;20.03;61.35
70015;BME280;57358;51.094;6.760;2023-09-19T10:01:04;100056.91;;;19.87;61.64
70015;BME280;57358;51.094;6.760;2023-09-19T10:03:42;100187.72;;;20.28;62.87
70015;BME280;57358;51.094;6.760;2023-09-19T10:06:17;100051.41;;;19.88;62.06
70015;BME280;57358;51.094;6.760;2023-09-19T10:09:06;99998.97;;;19.19;62.33
70015;BME280;57358;51.094;6.760;2023-09-19T10:12:02;100192.00;;;20.21;62.43
70015;BME280;57358;51.094;6.760;2023-09-19T10:14:30;100146.47;;;20.40;62.18
70015;BME280;57358;51.094;6.760;2023-09-19T10:16:59;100168.88;;;20.47;62.08
70015;BME280;57358;51.094;6.760;2023-09-19T10:19:36;100075.91;;;20.18;60.94
70015;BME280;57358;51.094;6.760;2023-09-19T10:22:04;100064.84;;;20.31;60.88
70015;BME280;57358;51.094;6.760;2023-09-19T10:24:34;100076.72;;;20.45;60.02
70015;BME280;57358;51.094;6.760;2023-09-19T10:27:11;100056.44;;;20.18;60.49
70015;BME280;57358;51.094;6.760;2023-09-19T10:29:39;100065.06;;;20.11;61.16
70015;BME280;57358;51.094;6.760;2023-09-19T10:32:06;100118.56;;;20.00;61.82
70015;BME280;57358;51.094;6.760;2023-09-19T10:34:36;100069.59;;;19.93;60.71
70015;BME280;57358;51.094;6.760;2023-09-19T10:37:04;99994.31;;;19.21;61.53
70015;BME280;57358;51.094;6.760;2023-09-19T10:39:32;100125.78;;;20.08;61.61
70015;BME280;57358;51.094;6.760;2023-09-19T10:42:02;100129.84;;;19.94;61.54
70015;BME280;57358;51.094;6.760;2023-09-19T10:44:32;100092.53;;;20.12;61.00
70015;BME280;57358;51.094;6.760;2023-09-19T10:46:59;100135.88;;;20.22;61.47
70015;BME280;57358;51.094;6.760;2023-09-19T10:49:25;100056.56;;;20.16;60.08
70015;BME280;57358;51.094;6.760;2023-09-19T10:51:54;99996.63;;;20.12;58.66
70015;BME280;57358;51.094;6.760;2023-09-19T10:54:27;100066.72;;;20.12;59.61
70015;BME280;57358;51.094;6.760;2023-09-19T10:56:55;100071.69;;;20.07;59.61
70015;BME280;57358;51.094;6.760;2023-09-19T10:59:25;100075.06;;;19.91;60.17
70015;BME280;57358;51.094;6.760;2023-09-19T11:01:53;100195.34;;;20.23;61.95
70015;BME280;57358;51.094;6.760;2023-09-19T11:04:31;100073.72;;;19.87;60.20
70015;BME280;57358;51.094;6.760;2023-09-19T11:07:10;100112.84;;;20.13;60.21
70015;BME280;57358;51.094;6.760;2023-09-19T11:14:58;100184.06;;;20.29;61.32
70015;BME280;57358;51.094;6.760;2023-09-19T11:17:37;100200.16;;;20.45;60.71
70015;BME280;57358;51.094;6.760;2023-09-19T11:30:37;100089.06;;;20.88;58.04
70015;BME280;57358;51.094;6.760;2023-09-19T11:33:20;100028.63;;;21.22;55.79
70015;BME280;57358;51.094;6.760;2023-09-19T11:36:17;100102.69;;;21.20;56.58
70015;BME280;57358;51.094;6.760;2023-09-19T11:43:51;100117.31;;;21.07;56.50
70015;BME280;57358;51.094;6.760;2023-09-19T11:46:23;99989.09;;;20.50;55.59
70015;BME280;57358;51.094;6.760;2023-09-19T11:48:51;99906.88;;;20.80;53.53
70015;BME280;57358;51.094;6.760;2023-09-19T11:51:19;100003.03;;;20.78;54.47
70015;BME280;57358;51.094;6.760;2023-09-19T11:53:51;99924.44;;;20.31;54.03
70015;BME280;57358;51.094;6.760;2023-09-19T11:56:23;100039.19;;;20.72;55.11
70015;BME280;57358;51.094;6.760;2023-09-19T11:58:54;100162.38;;;21.19;55.08
70015;BME280;57358;51.094;6.760;2023-09-19T12:01:31;99943.69;;;20.68;53.39
70015;BME280;57358;51.094;6.760;2023-09-19T12:04:01;100011.63;;;21.31;53.25
70015;BME280;57358;51.094;6.760;2023-09-19T12:06:29;99901.53;;;20.96;51.71
70015;BME280;57358;51.094;6.760;2023-09-19T12:08:56;99840.19;;;20.47;51.85
70015;BME280;57358;51.094;6.760;2023-09-19T12:11:29;100015.28;;;21.14;52.20
70015;BME280;57358;51.094;6.760;2023-09-19T12:13:59;99971.34;;;20.59;52.82
70015;BME280;57358;51.094;6.760;2023-09-19T12:16:27;100016.78;;;21.16;52.37
70015;BME280;57358;51.094;6.760;2023-09-19T12:18:57;100004.78;;;21.20;52.21
70015;BME280;57358;51.094;6.760;2023-09-19T12:21:29;100004.94;;;21.19;51.60
70015;BME280;57358;51.094;6.760;2023-09-19T12:26:51;99987.72;;;20.88;52.04
70015;BME280;57358;51.094;6.760;2023-09-19T12:29:20;100120.63;;;21.60;53.04
70015;BME280;57358;51.094;6.760;2023-09-19T12:31:58;100049.34;;;21.61;50.84
70015;BME280;57358;51.094;6.760;2023-09-19T12:34:26;99947.56;;;20.98;51.18
70015;BME280;57358;51.094;6.760;2023-09-19T12:37:07;100068.72;;;21.79;51.26
70015;BME280;57358;51.094;6.760;2023-09-19T12:39:49;100060.19;;;21.76;50.68
70015;BME280;57358;51.094;6.760;2023-09-19T12:42:19;100007.97;;;21.48;50.15
70015;BME280;57358;51.094;6.760;2023-09-19T12:44:48;100019.97;;;21.52;50.94
70015;BME280;57358;51.094;6.760;2023-09-19T12:47:16;100046.84;;;21.76;50.28
70015;BME280;57358;51.094;6.760;2023-09-19T12:50:05;100073.88;;;21.81;51.35
70015;BME280;57358;51.094;6.760;2023-09-19T12:52:40;100056.50;;;21.93;50.69
70015;BME280;57358;51.094;6.760;2023-09-19T12:55:07;99944.72;;;21.32;49.99
70015;BME280;57358;51.094;6.760;2023-09-19T12:57:35;100025.94;;;21.96;49.81
70015;BME280;57358;51.094;6.760;2023-09-19T13:00:03;100077.69;;;22.03;50.38
70015;BME280;57358;51.094;6.760;2023-09-19T13:02:32;100022.06;;;22.06;49.54
70015;BME280;57358;51.094;6.760;2023-09-19T13:04:59;99883.72;;;21.13;49.87
70015;BME280;57358;51.094;6.760;2023-09-19T13:07:43;99999.28;;;21.71;49.92
70015;BME280;57358;51.094;6.760;2023-09-19T13:10:11;99948.38;;;21.56;48.97
70015;BME280;57358;51.094;6.760;2023-09-19T13:12:42;100043.59;;;22.13;48.91
70015;BME280;57358;51.094;6.760;2023-09-19T13:15:14;99944.25;;;21.45;49.40
70015;BME280;57358;51.094;6.760;2023-09-19T13:17:46;100039.22;;;22.20;48.64
70015;BME280;57358;51.094;6.760;2023-09-19T13:20:22;100111.38;;;22.37;49.69
70015;BME280;57358;51.094;6.760;2023-09-19T13:22:54;100113.56;;;22.41;48.91
70015;BME280;57358;51.094;6.760;2023-09-19T13:25:25;100086.75;;;22.58;48.36
70015;BME280;57358;51.094;6.760;2023-09-19T13:27:54;100095.59;;;22.58;49.43
70015;BME280;57358;51.094;6.760;2023-09-19T13:30:23;100139.63;;;22.87;49.20
70015;BME280;57358;51.094;6.760;2023-09-19T13:33:06;100163.59;;;23.20;48.78
70015;BME280;57358;51.094;6.760;2023-09-19T13:35:33;100054.78;;;22.64;48.39
70015;BME280;57358;51.094;6.760;2023-09-19T13:38:00;100025.75;;;22.05;48.86
70015;BME280;57358;51.094;6.760;2023-09-19T13:40:27;100048.31;;;21.95;49.42
70015;BME280;57358;51.094;6.760;2023-09-19T13:42:57;100063.69;;;21.84;49.48
70015;BME280;57358;51.094;6.760;2023-09-19T13:45:23;100078.38;;;21.88;49.78
70015;BME280;57358;51.094;6.760;2023-09-19T13:47:53;100156.63;;;22.55;50.35